sensor_id;sensor_type;location;lat;lon;timestamp;P1;durP1;ratioP1;P2;durP2;ratioP2
29320;SDS011;16323;51.130;6.612;2022-07-29T00:01:07;0.75;;;0.40;;
29320;SDS011;16323;51.130;6.612;2022-07-29T00:03:34;0.80;;;0.50;;
29320;SDS011;16323;51.130;6.612;2022-07-29T00:06:01;0.93;;;0.70;;
29320;SDS011;16323;51.130;6.612;2022-07-29T00:08:27;1.10;;;0.50;;
29320;SDS011;16323;51.130;6.612;2022-07-29T00:10:54;1.45;;;0.50;;
29320;SDS011;16323;51.130;6.612;2022-07-29T00:13:22;0.45;;;0.45;;
29320;SDS011;16323;51.130;6.612;2022-07-29T00:15:49;1.15;;;0.60;;
29320;SDS011;16323;51.130;6.612;2022-07-29T00:18:16;1.33;;;0.50;;
29320;SDS011;16323;51.130;6.612;2022-07-29T00:20:43;1.27;;;0.60;;
29320;SDS011;16323;51.130;6.612;2022-07-29T00:23:09;1.25;;;0.73;;
29320;SDS011;16323;51.130;6.612;2022-07-29T00:25:36;0.47;;;0.40;;
29320;SDS011;16323;51.130;6.612;2022-07-29T00:28:03;0.88;;;0.60;;
29320;SDS011;16323;51.130;6.612;2022-07-29T00:30:32;0.90;;;0.60;;
29320;SDS011;16323;51.130;6.612;2022-07-29T00:32:58;0.75;;;0.47;;
29320;SDS011;16323;51.130;6.612;2022-07-29T00:35:25;1.67;;;0.60;;
29320;SDS011;16323;51.130;6.612;2022-07-29T00:38:10;1.45;;;0.60;;
29320;SDS011;16323;51.130;6.612;2022-07-29T00:40:38;1.52;;;0.68;;
29320;SDS011;16323;51.130;6.612;2022-07-29T00:43:05;2.45;;;0.68;;
29320;SDS011;16323;51.130;6.612;2022-07-29T00:45:33;1.67;;;0.80;;
29320;SDS011;16323;51.130;6.612;2022-07-29T00:48:00;1.08;;;0.70;;
29320;SDS011;16323;51.130;6.612;2022-07-29T00:50:28;1.30;;;0.60;;
29320;SDS011;16323;51.130;6.612;2022-07-29T00:52:55;0.95;;;0.52;;
29320;SDS011;16323;51.130;6.612;2022-07-29T00:55:22;0.77;;;0.40;;
29320;SDS011;16323;51.130;6.612;2022-07-29T00:57:48;1.02;;;0.60;;
29320;SDS011;16323;51.130;6.612;2022-07-29T01:00:17;2.85;;;0.75;;
29320;SDS011;16323;51.130;6.612;2022-07-29T01:02:47;1.17;;;0.60;;
29320;SDS011;16323;51.130;6.612;2022-07-29T01:05:15;1.95;;;0.73;;
29320;SDS011;16323;51.130;6.612;2022-07-29T01:07:43;0.50;;;0.50;;
29320;SDS011;16323;51.130;6.612;2022-07-29T01:10:12;0.50;;;0.40;;
29320;SDS011;16323;51.130;6.612;2022-07-29T01:12:40;0.40;;;0.40;;
29320;SDS011;16323;51.130;6.612;2022-07-29T01:15:09;0.70;;;0.40;;
29320;SDS011;16323;51.130;6.612;2022-07-29T01:17:39;1.48;;;0.50;;
29320;SDS011;16323;51.130;6.612;2022-07-29T01:20:13;1.30;;;0.70;;
29320;SDS011;16323;51.130;6.612;2022-07-29T01:25:45;1.45;;;0.57;;
29320;SDS011;16323;51.130;6.612;2022-07-29T01:28:34;0.90;;;0.65;;
29320;SDS011;16323;51.130;6.612;2022-07-29T01:31:22;1.27;;;0.70;;
29320;SDS011;16323;51.130;6.612;2022-07-29T01:33:55;1.02;;;0.60;;
29320;SDS011;16323;51.130;6.612;2022-07-29T01:36:27;0.70;;;0.60;;
29320;SDS011;16323;51.130;6.612;2022-07-29T01:38:58;1.05;;;0.47;;
29320;SDS011;16323;51.130;6.612;2022-07-29T01:41:32;0.60;;;0.50;;
29320;SDS011;16323;51.130;6.612;2022-07-29T01:44:05;2.92;;;0.68;;
29320;SDS011;16323;51.130;6.612;2022-07-29T01:46:38;0.70;;;0.57;;
29320;SDS011;16323;51.130;6.612;2022-07-29T01:49:10;2.00;;;0.80;;
29320;SDS011;16323;51.130;6.612;2022-07-29T01:51:41;0.70;;;0.60;;
29320;SDS011;16323;51.130;6.612;2022-07-29T01:54:13;0.63;;;0.50;;
29320;SDS011;16323;51.130;6.612;2022-07-29T01:56:45;0.70;;;0.60;;
29320;SDS011;16323;51.130;6.612;2022-07-29T01:59:16;0.60;;;0.50;;
29320;SDS011;16323;51.130;6.612;2022-07-29T02:01:45;1.23;;;0.68;;
29320;SDS011;16323;51.130;6.612;2022-07-29T02:04:15;1.23;;;0.70;;
29320;SDS011;16323;51.130;6.612;2022-07-29T02:06:45;0.63;;;0.50;;
29320;SDS011;16323;51.130;6.612;2022-07-29T02:09:15;1.38;;;0.50;;
29320;SDS011;16323;51.130;6.612;2022-07-29T02:11:44;1.88;;;1.02;;
29320;SDS011;16323;51.130;6.612;2022-07-29T02:14:16;0.70;;;0.50;;
29320;SDS011;16323;51.130;6.612;2022-07-29T02:16:44;0.82;;;0.57;;
29320;SDS011;16323;51.130;6.612;2022-07-29T02:19:12;0.75;;;0.50;;
29320;SDS011;16323;51.130;6.612;2022-07-29T02:21:40;0.80;;;0.60;;
29320;SDS011;16323;51.130;6.612;2022-07-29T02:24:09;1.65;;;0.75;;
29320;SDS011;16323;51.130;6.612;2022-07-29T02:26:38;0.90;;;0.60;;
29320;SDS011;16323;51.130;6.612;2022-07-29T02:29:07;2.58;;;0.70;;
29320;SDS011;16323;51.130;6.612;2022-07-29T02:31:37;0.80;;;0.50;;
29320;SDS011;16323;51.130;6.612;2022-07-29T02:34:06;1.55;;;0.60;;
29320;SDS011;16323;51.130;6.612;2022-07-29T02:36:35;1.38;;;0.65;;
29320;SDS011;16323;51.130;6.612;2022-07-29T02:39:02;0.73;;;0.60;;
29320;SDS011;16323;51.130;6.612;2022-07-29T02:41:30;1.60;;;0.70;;
29320;SDS011;16323;51.130;6.612;2022-07-29T02:44:03;1.15;;;0.70;;
29320;SDS011;16323;51.130;6.612;2022-07-29T02:46:36;2.42;;;0.60;;
29320;SDS011;16323;51.130;6.612;2022-07-29T02:49:09;1.13;;;0.50;;
29320;SDS011;16323;51.130;6.612;2022-07-29T02:51:41;1.42;;;0.60;;
29320;SDS011;16323;51.130;6.612;2022-07-29T02:54:11;1.70;;;0.70;;
29320;SDS011;16323;51.130;6.612;2022-07-29T02:56:45;1.70;;;0.73;;
29320;SDS011;16323;51.130;6.612;2022-07-29T02:59:13;0.90;;;0.70;;
29320;SDS011;16323;51.130;6.612;2022-07-29T03:01:47;1.25;;;0.77;;
29320;SDS011;16323;51.130;6.612;2022-07-29T03:04:15;2.30;;;0.82;;
29320;SDS011;16323;51.130;6.612;2022-07-29T03:06:44;1.13;;;0.60;;
29320;SDS011;16323;51.130;6.612;2022-07-29T03:09:11;1.65;;;0.80;;
29320;SDS011;16323;51.130;6.612;2022-07-29T03:11:39;0.65;;;0.50;;
29320;SDS011;16323;51.130;6.612;2022-07-29T03:14:07;0.95;;;0.70;;
29320;SDS011;16323;51.130;6.612;2022-07-29T03:16:34;0.88;;;0.40;;
29320;SDS011;16323;51.130;6.612;2022-07-29T03:19:03;0.88;;;0.65;;
29320;SDS011;16323;51.130;6.612;2022-07-29T03:21:31;1.27;;;0.52;;
29320;SDS011;16323;51.130;6.612;2022-07-29T03:23:58;1.08;;;0.68;;
29320;SDS011;16323;51.130;6.612;2022-07-29T03:26:25;1.17;;;0.73;;
29320;SDS011;16323;51.130;6.612;2022-07-29T03:28:51;1.50;;;0.70;;
29320;SDS011;16323;51.130;6.612;2022-07-29T03:31:18;0.88;;;0.70;;
29320;SDS011;16323;51.130;6.612;2022-07-29T03:33:45;2.08;;;0.60;;
29320;SDS011;16323;51.130;6.612;2022-07-29T03:36:13;0.93;;;0.55;;
29320;SDS011;16323;51.130;6.612;2022-07-29T03:38:40;2.58;;;0.85;;
29320;SDS011;16323;51.130;6.612;2022-07-29T03:41:10;0.85;;;0.50;;
29320;SDS011;16323;51.130;6.612;2022-07-29T03:43:39;0.57;;;0.57;;
29320;SDS011;16323;51.130;6.612;2022-07-29T03:46:08;2.03;;;0.82;;
29320;SDS011;16323;51.130;6.612;2022-07-29T03:48:39;2.35;;;1.08;;
29320;SDS011;16323;51.130;6.612;2022-07-29T03:51:13;0.73;;;0.55;;
29320;SDS011;16323;51.130;6.612;2022-07-29T03:53:41;0.88;;;0.60;;
29320;SDS011;16323;51.130;6.612;2022-07-29T03:56:08;1.38;;;0.60;;
29320;SDS011;16323;51.130;6.612;2022-07-29T03:58:38;1.58;;;0.68;;
29320;SDS011;16323;51.130;6.612;2022-07-29T04:01:05;0.90;;;0.50;;
29320;SDS011;16323;51.130;6.612;2022-07-29T04:03:32;0.75;;;0.52;;
29320;SDS011;16323;51.130;6.612;2022-07-29T04:06:00;0.85;;;0.70;;
29320;SDS011;16323;51.130;6.612;2022-07-29T04:08:31;0.82;;;0.60;;
29320;SDS011;16323;51.130;6.612;2022-07-29T04:10:58;1.30;;;0.70;;
29320;SDS011;16323;51.130;6.612;2022-07-29T04:13:25;1.40;;;0.68;;
29320;SDS011;16323;51.130;6.612;2022-07-29T04:15:52;1.13;;;0.57;;
29320;SDS011;16323;51.130;6.612;2022-07-29T04:18:19;1.08;;;0.70;;
29320;SDS011;16323;51.130;6.612;2022-07-29T04:20:45;1.67;;;0.63;;
29320;SDS011;16323;51.130;6.612;2022-07-29T04:23:12;0.80;;;0.60;;
29320;SDS011;16323;51.130;6.612;2022-07-29T04:25:41;0.77;;;0.50;;
29320;SDS011;16323;51.130;6.612;2022-07-29T04:28:08;0.70;;;0.60;;
29320;SDS011;16323;51.130;6.612;2022-07-29T04:30:36;1.13;;;0.80;;
29320;SDS011;16323;51.130;6.612;2022-07-29T04:33:04;0.70;;;0.60;;
29320;SDS011;16323;51.130;6.612;2022-07-29T04:35:33;0.95;;;0.82;;
29320;SDS011;16323;51.130;6.612;2022-07-29T04:38:01;0.77;;;0.52;;
29320;SDS011;16323;51.130;6.612;2022-07-29T04:40:28;2.45;;;0.60;;
29320;SDS011;16323;51.130;6.612;2022-07-29T04:42:57;0.60;;;0.60;;
29320;SDS011;16323;51.130;6.612;2022-07-29T04:45:23;1.25;;;0.52;;
29320;SDS011;16323;51.130;6.612;2022-07-29T04:47:50;0.80;;;0.50;;
29320;SDS011;16323;51.130;6.612;2022-07-29T04:50:17;1.00;;;0.52;;
29320;SDS011;16323;51.130;6.612;2022-07-29T04:52:44;0.98;;;0.60;;
29320;SDS011;16323;51.130;6.612;2022-07-29T04:55:10;1.35;;;0.50;;
29320;SDS011;16323;51.130;6.612;2022-07-29T04:57:37;0.90;;;0.60;;
29320;SDS011;16323;51.130;6.612;2022-07-29T05:00:06;1.42;;;0.57;;
29320;SDS011;16323;51.130;6.612;2022-07-29T05:02:34;4.32;;;0.60;;
29320;SDS011;16323;51.130;6.612;2022-07-29T05:05:00;0.77;;;0.55;;
29320;SDS011;16323;51.130;6.612;2022-07-29T05:07:27;1.33;;;0.60;;
29320;SDS011;16323;51.130;6.612;2022-07-29T05:09:54;0.85;;;0.63;;
29320;SDS011;16323;51.130;6.612;2022-07-29T05:12:21;1.10;;;0.50;;
29320;SDS011;16323;51.130;6.612;2022-07-29T05:14:48;0.52;;;0.50;;
29320;SDS011;16323;51.130;6.612;2022-07-29T05:17:16;0.73;;;0.63;;
29320;SDS011;16323;51.130;6.612;2022-07-29T05:19:43;1.27;;;0.57;;
29320;SDS011;16323;51.130;6.612;2022-07-29T05:22:10;1.33;;;0.80;;
29320;SDS011;16323;51.130;6.612;2022-07-29T05:24:37;0.93;;;0.63;;
29320;SDS011;16323;51.130;6.612;2022-07-29T05:27:04;1.77;;;0.70;;
29320;SDS011;16323;51.130;6.612;2022-07-29T05:29:31;2.15;;;1.00;;
29320;SDS011;16323;51.130;6.612;2022-07-29T05:31:58;1.45;;;0.77;;
29320;SDS011;16323;51.130;6.612;2022-07-29T05:34:26;0.98;;;0.80;;
29320;SDS011;16323;51.130;6.612;2022-07-29T05:36:53;1.17;;;0.90;;
29320;SDS011;16323;51.130;6.612;2022-07-29T05:39:19;1.35;;;0.98;;
29320;SDS011;16323;51.130;6.612;2022-07-29T05:41:46;1.05;;;0.90;;
29320;SDS011;16323;51.130;6.612;2022-07-29T05:44:13;0.95;;;0.80;;
29320;SDS011;16323;51.130;6.612;2022-07-29T05:46:40;1.10;;;0.70;;
29320;SDS011;16323;51.130;6.612;2022-07-29T05:49:07;1.25;;;0.80;;
29320;SDS011;16323;51.130;6.612;2022-07-29T05:51:35;1.15;;;0.80;;
29320;SDS011;16323;51.130;6.612;2022-07-29T05:54:02;0.93;;;0.80;;
29320;SDS011;16323;51.130;6.612;2022-07-29T05:56:29;1.63;;;0.77;;
29320;SDS011;16323;51.130;6.612;2022-07-29T05:58:56;0.75;;;0.60;;
29320;SDS011;16323;51.130;6.612;2022-07-29T06:01:23;1.85;;;1.05;;
29320;SDS011;16323;51.130;6.612;2022-07-29T06:03:51;1.05;;;0.77;;
29320;SDS011;16323;51.130;6.612;2022-07-29T06:06:17;2.35;;;0.90;;
29320;SDS011;16323;51.130;6.612;2022-07-29T06:08:45;1.63;;;0.80;;
29320;SDS011;16323;51.130;6.612;2022-07-29T06:11:12;2.05;;;1.08;;
29320;SDS011;16323;51.130;6.612;2022-07-29T06:13:39;3.42;;;1.17;;
29320;SDS011;16323;51.130;6.612;2022-07-29T06:16:06;1.88;;;0.88;;
29320;SDS011;16323;51.130;6.612;2022-07-29T06:18:33;1.13;;;0.75;;
29320;SDS011;16323;51.130;6.612;2022-07-29T06:21:00;1.70;;;0.70;;
29320;SDS011;16323;51.130;6.612;2022-07-29T06:23:26;1.77;;;0.90;;
29320;SDS011;16323;51.130;6.612;2022-07-29T06:25:54;1.20;;;0.80;;
29320;SDS011;16323;51.130;6.612;2022-07-29T06:28:21;1.40;;;0.70;;
29320;SDS011;16323;51.130;6.612;2022-07-29T06:30:48;1.02;;;0.70;;
29320;SDS011;16323;51.130;6.612;2022-07-29T06:33:18;3.22;;;0.85;;
29320;SDS011;16323;51.130;6.612;2022-07-29T06:35:45;1.67;;;0.93;;
29320;SDS011;16323;51.130;6.612;2022-07-29T06:38:12;1.38;;;0.80;;
29320;SDS011;16323;51.130;6.612;2022-07-29T06:40:40;2.30;;;1.00;;
29320;SDS011;16323;51.130;6.612;2022-07-29T06:43:27;1.30;;;0.90;;
29320;SDS011;16323;51.130;6.612;2022-07-29T06:45:57;1.02;;;0.73;;
29320;SDS011;16323;51.130;6.612;2022-07-29T06:48:24;1.85;;;0.88;;
29320;SDS011;16323;51.130;6.612;2022-07-29T06:50:51;2.22;;;0.85;;
29320;SDS011;16323;51.130;6.612;2022-07-29T06:53:18;1.75;;;1.00;;
29320;SDS011;16323;51.130;6.612;2022-07-29T06:55:45;1.08;;;0.98;;
29320;SDS011;16323;51.130;6.612;2022-07-29T06:58:12;2.10;;;1.00;;
29320;SDS011;16323;51.130;6.612;2022-07-29T07:00:42;1.23;;;0.75;;
29320;SDS011;16323;51.130;6.612;2022-07-29T07:03:09;1.35;;;0.80;;
29320;SDS011;16323;51.130;6.612;2022-07-29T07:05:35;2.05;;;0.80;;
29320;SDS011;16323;51.130;6.612;2022-07-29T07:08:02;2.88;;;1.13;;
29320;SDS011;16323;51.130;6.612;2022-07-29T07:10:29;1.75;;;1.00;;
29320;SDS011;16323;51.130;6.612;2022-07-29T07:12:56;1.50;;;0.80;;
29320;SDS011;16323;51.130;6.612;2022-07-29T07:15:23;1.17;;;0.90;;
29320;SDS011;16323;51.130;6.612;2022-07-29T07:17:51;2.38;;;0.80;;
29320;SDS011;16323;51.130;6.612;2022-07-29T07:20:18;1.75;;;0.80;;
29320;SDS011;16323;51.130;6.612;2022-07-29T07:22:45;3.30;;;1.15;;
29320;SDS011;16323;51.130;6.612;2022-07-29T07:25:12;1.08;;;0.80;;
29320;SDS011;16323;51.130;6.612;2022-07-29T07:27:39;1.55;;;0.90;;
29320;SDS011;16323;51.130;6.612;2022-07-29T07:30:06;1.38;;;0.95;;
29320;SDS011;16323;51.130;6.612;2022-07-29T07:32:33;2.42;;;1.02;;
29320;SDS011;16323;51.130;6.612;2022-07-29T07:35:02;1.95;;;1.02;;
29320;SDS011;16323;51.130;6.612;2022-07-29T07:37:29;2.00;;;1.00;;
29320;SDS011;16323;51.130;6.612;2022-07-29T07:39:56;2.17;;;1.00;;
29320;SDS011;16323;51.130;6.612;2022-07-29T07:42:23;2.22;;;1.00;;
29320;SDS011;16323;51.130;6.612;2022-07-29T07:44:50;1.85;;;1.02;;
29320;SDS011;16323;51.130;6.612;2022-07-29T07:47:17;1.60;;;0.90;;
29320;SDS011;16323;51.130;6.612;2022-07-29T07:49:44;2.22;;;1.20;;
29320;SDS011;16323;51.130;6.612;2022-07-29T07:52:13;2.70;;;1.10;;
29320;SDS011;16323;51.130;6.612;2022-07-29T07:54:40;1.80;;;1.00;;
29320;SDS011;16323;51.130;6.612;2022-07-29T07:57:08;2.15;;;1.20;;
29320;SDS011;16323;51.130;6.612;2022-07-29T07:59:35;2.25;;;1.00;;
29320;SDS011;16323;51.130;6.612;2022-07-29T08:02:01;3.78;;;1.05;;
29320;SDS011;16323;51.130;6.612;2022-07-29T08:04:28;2.03;;;1.15;;
29320;SDS011;16323;51.130;6.612;2022-07-29T08:06:55;1.75;;;1.00;;
29320;SDS011;16323;51.130;6.612;2022-07-29T08:09:25;1.55;;;0.80;;
29320;SDS011;16323;51.130;6.612;2022-07-29T08:11:53;1.33;;;0.77;;
29320;SDS011;16323;51.130;6.612;2022-07-29T08:14:20;1.20;;;0.90;;
29320;SDS011;16323;51.130;6.612;2022-07-29T08:16:47;2.03;;;0.98;;
29320;SDS011;16323;51.130;6.612;2022-07-29T08:19:14;2.22;;;0.90;;
29320;SDS011;16323;51.130;6.612;2022-07-29T08:21:41;1.45;;;1.00;;
29320;SDS011;16323;51.130;6.612;2022-07-29T08:24:08;1.38;;;0.73;;
29320;SDS011;16323;51.130;6.612;2022-07-29T08:26:53;1.67;;;0.90;;
29320;SDS011;16323;51.130;6.612;2022-07-29T08:29:20;1.95;;;0.90;;
29320;SDS011;16323;51.130;6.612;2022-07-29T08:31:47;1.15;;;0.82;;
29320;SDS011;16323;51.130;6.612;2022-07-29T08:34:14;1.90;;;1.10;;
29320;SDS011;16323;51.130;6.612;2022-07-29T08:36:41;3.47;;;1.35;;
29320;SDS011;16323;51.130;6.612;2022-07-29T08:39:07;1.67;;;0.82;;
29320;SDS011;16323;51.130;6.612;2022-07-29T08:41:34;1.98;;;1.02;;
29320;SDS011;16323;51.130;6.612;2022-07-29T08:44:03;1.85;;;1.00;;
29320;SDS011;16323;51.130;6.612;2022-07-29T08:46:30;1.48;;;0.82;;
29320;SDS011;16323;51.130;6.612;2022-07-29T08:48:56;6.20;;;1.40;;
29320;SDS011;16323;51.130;6.612;2022-07-29T08:51:23;9.45;;;2.15;;
29320;SDS011;16323;51.130;6.612;2022-07-29T08:53:52;7.10;;;1.70;;
29320;SDS011;16323;51.130;6.612;2022-07-29T08:56:20;8.00;;;1.92;;
29320;SDS011;16323;51.130;6.612;2022-07-29T08:58:48;6.32;;;1.58;;
29320;SDS011;16323;51.130;6.612;2022-07-29T09:01:17;6.38;;;2.05;;
29320;SDS011;16323;51.130;6.612;2022-07-29T09:03:48;9.40;;;2.00;;
29320;SDS011;16323;51.130;6.612;2022-07-29T09:06:17;7.50;;;1.48;;
29320;SDS011;16323;51.130;6.612;2022-07-29T09:08:45;4.20;;;1.55;;
29320;SDS011;16323;51.130;6.612;2022-07-29T09:11:13;4.63;;;1.17;;
29320;SDS011;16323;51.130;6.612;2022-07-29T09:13:40;35.03;;;2.00;;
29320;SDS011;16323;51.130;6.612;2022-07-29T09:16:07;11.77;;;2.33;;
29320;SDS011;16323;51.130;6.612;2022-07-29T09:18:36;20.95;;;2.00;;
29320;SDS011;16323;51.130;6.612;2022-07-29T09:21:04;4.60;;;1.48;;
29320;SDS011;16323;51.130;6.612;2022-07-29T09:23:59;7.93;;;1.55;;
29320;SDS011;16323;51.130;6.612;2022-07-29T09:26:28;2.95;;;1.10;;
29320;SDS011;16323;51.130;6.612;2022-07-29T09:28:55;3.45;;;1.30;;
29320;SDS011;16323;51.130;6.612;2022-07-29T09:31:27;5.85;;;1.40;;
29320;SDS011;16323;51.130;6.612;2022-07-29T09:34:00;7.18;;;1.50;;
29320;SDS011;16323;51.130;6.612;2022-07-29T09:36:28;5.40;;;1.30;;
29320;SDS011;16323;51.130;6.612;2022-07-29T09:38:58;2.38;;;0.93;;
29320;SDS011;16323;51.130;6.612;2022-07-29T09:41:26;2.58;;;1.00;;
29320;SDS011;16323;51.130;6.612;2022-07-29T09:43:54;3.65;;;1.20;;
29320;SDS011;16323;51.130;6.612;2022-07-29T09:46:22;2.60;;;1.08;;
29320;SDS011;16323;51.130;6.612;2022-07-29T09:49:08;3.67;;;1.10;;
29320;SDS011;16323;51.130;6.612;2022-07-29T09:51:35;2.67;;;1.27;;
29320;SDS011;16323;51.130;6.612;2022-07-29T09:54:02;2.97;;;1.35;;
29320;SDS011;16323;51.130;6.612;2022-07-29T09:56:48;2.60;;;1.30;;
29320;SDS011;16323;51.130;6.612;2022-07-29T09:59:15;2.72;;;1.30;;
29320;SDS011;16323;51.130;6.612;2022-07-29T10:01:42;8.07;;;1.40;;
29320;SDS011;16323;51.130;6.612;2022-07-29T10:04:10;1.60;;;0.70;;
29320;SDS011;16323;51.130;6.612;2022-07-29T10:06:46;3.05;;;1.20;;
29320;SDS011;16323;51.130;6.612;2022-07-29T10:09:22;3.90;;;1.30;;
29320;SDS011;16323;51.130;6.612;2022-07-29T10:12:02;2.80;;;1.02;;
29320;SDS011;16323;51.130;6.612;2022-07-29T10:14:30;2.83;;;1.20;;
29320;SDS011;16323;51.130;6.612;2022-07-29T10:16:57;1.77;;;0.95;;
29320;SDS011;16323;51.130;6.612;2022-07-29T10:19:26;2.10;;;1.00;;
29320;SDS011;16323;51.130;6.612;2022-07-29T10:21:54;3.42;;;1.45;;
29320;SDS011;16323;51.130;6.612;2022-07-29T10:24:22;2.33;;;1.15;;
29320;SDS011;16323;51.130;6.612;2022-07-29T10:26:50;2.20;;;1.35;;
29320;SDS011;16323;51.130;6.612;2022-07-29T10:29:19;2.72;;;1.27;;
29320;SDS011;16323;51.130;6.612;2022-07-29T10:31:48;3.17;;;1.30;;
29320;SDS011;16323;51.130;6.612;2022-07-29T10:34:23;4.15;;;1.50;;
29320;SDS011;16323;51.130;6.612;2022-07-29T10:37:04;2.35;;;1.30;;
29320;SDS011;16323;51.130;6.612;2022-07-29T10:39:38;3.67;;;1.27;;
29320;SDS011;16323;51.130;6.612;2022-07-29T10:42:16;3.78;;;1.80;;
29320;SDS011;16323;51.130;6.612;2022-07-29T10:44:44;3.13;;;1.27;;
29320;SDS011;16323;51.130;6.612;2022-07-29T10:47:19;1.83;;;1.27;;
29320;SDS011;16323;51.130;6.612;2022-07-29T10:49:56;2.03;;;1.17;;
29320;SDS011;16323;51.130;6.612;2022-07-29T10:52:23;3.00;;;1.40;;
29320;SDS011;16323;51.130;6.612;2022-07-29T10:54:53;2.58;;;1.17;;
29320;SDS011;16323;51.130;6.612;2022-07-29T10:57:23;1.95;;;1.20;;
29320;SDS011;16323;51.130;6.612;2022-07-29T11:02:52;2.25;;;1.38;;
29320;SDS011;16323;51.130;6.612;2022-07-29T11:05:22;2.33;;;1.00;;
29320;SDS011;16323;51.130;6.612;2022-07-29T11:08:16;2.83;;;1.30;;
29320;SDS011;16323;51.130;6.612;2022-07-29T11:10:50;1.77;;;1.05;;
29320;SDS011;16323;51.130;6.612;2022-07-29T11:16:11;3.20;;;1.20;;
29320;SDS011;16323;51.130;6.612;2022-07-29T11:21:42;3.53;;;1.58;;
29320;SDS011;16323;51.130;6.612;2022-07-29T11:24:12;4.75;;;1.40;;
29320;SDS011;16323;51.130;6.612;2022-07-29T11:26:39;4.38;;;1.30;;
29320;SDS011;16323;51.130;6.612;2022-07-29T11:29:13;5.65;;;1.88;;
29320;SDS011;16323;51.130;6.612;2022-07-29T11:31:46;9.90;;;3.35;;
29320;SDS011;16323;51.130;6.612;2022-07-29T11:34:20;12.32;;;5.93;;
29320;SDS011;16323;51.130;6.612;2022-07-29T11:39:43;3.92;;;1.90;;
29320;SDS011;16323;51.130;6.612;2022-07-29T11:45:05;4.80;;;2.20;;
29320;SDS011;16323;51.130;6.612;2022-07-29T11:47:34;3.35;;;1.58;;
29320;SDS011;16323;51.130;6.612;2022-07-29T11:50:04;4.88;;;2.20;;
29320;SDS011;16323;51.130;6.612;2022-07-29T11:52:34;4.78;;;2.22;;
29320;SDS011;16323;51.130;6.612;2022-07-29T11:55:03;2.58;;;1.60;;
29320;SDS011;16323;51.130;6.612;2022-07-29T11:57:32;3.25;;;1.75;;
29320;SDS011;16323;51.130;6.612;2022-07-29T12:00:01;3.45;;;1.52;;
29320;SDS011;16323;51.130;6.612;2022-07-29T12:02:37;13.52;;;2.03;;
29320;SDS011;16323;51.130;6.612;2022-07-29T12:05:07;5.75;;;1.45;;
29320;SDS011;16323;51.130;6.612;2022-07-29T12:07:35;3.47;;;1.67;;
29320;SDS011;16323;51.130;6.612;2022-07-29T12:10:04;3.92;;;1.58;;
29320;SDS011;16323;51.130;6.612;2022-07-29T12:12:31;4.53;;;1.70;;
29320;SDS011;16323;51.130;6.612;2022-07-29T12:15:09;1.85;;;1.20;;
29320;SDS011;16323;51.130;6.612;2022-07-29T12:17:37;5.38;;;1.60;;
29320;SDS011;16323;51.130;6.612;2022-07-29T12:20:04;3.20;;;1.40;;
29320;SDS011;16323;51.130;6.612;2022-07-29T12:22:32;2.63;;;1.35;;
29320;SDS011;16323;51.130;6.612;2022-07-29T12:25:04;3.72;;;1.67;;
29320;SDS011;16323;51.130;6.612;2022-07-29T12:27:32;3.83;;;1.67;;
29320;SDS011;16323;51.130;6.612;2022-07-29T12:29:59;2.60;;;1.40;;
29320;SDS011;16323;51.130;6.612;2022-07-29T12:32:31;3.78;;;1.50;;
29320;SDS011;16323;51.130;6.612;2022-07-29T12:34:58;3.92;;;1.60;;
29320;SDS011;16323;51.130;6.612;2022-07-29T12:37:26;5.43;;;2.10;;
29320;SDS011;16323;51.130;6.612;2022-07-29T12:39:52;6.32;;;1.50;;
29320;SDS011;16323;51.130;6.612;2022-07-29T12:42:20;6.57;;;2.10;;
29320;SDS011;16323;51.130;6.612;2022-07-29T12:44:48;6.38;;;1.45;;
29320;SDS011;16323;51.130;6.612;2022-07-29T12:47:17;3.35;;;1.80;;
29320;SDS011;16323;51.130;6.612;2022-07-29T12:49:44;3.55;;;1.65;;
29320;SDS011;16323;51.130;6.612;2022-07-29T12:52:27;4.63;;;1.60;;
29320;SDS011;16323;51.130;6.612;2022-07-29T12:54:55;2.83;;;1.45;;
29320;SDS011;16323;51.130;6.612;2022-07-29T12:57:23;5.88;;;1.92;;
29320;SDS011;16323;51.130;6.612;2022-07-29T13:00:00;6.60;;;1.73;;
29320;SDS011;16323;51.130;6.612;2022-07-29T13:02:34;4.82;;;1.77;;
29320;SDS011;16323;51.130;6.612;2022-07-29T13:05:01;5.55;;;1.90;;
29320;SDS011;16323;51.130;6.612;2022-07-29T13:07:30;4.78;;;1.70;;
29320;SDS011;16323;51.130;6.612;2022-07-29T13:10:10;10.85;;;2.65;;
29320;SDS011;16323;51.130;6.612;2022-07-29T13:12:40;5.38;;;1.90;;
29320;SDS011;16323;51.130;6.612;2022-07-29T13:15:28;7.15;;;1.55;;
29320;SDS011;16323;51.130;6.612;2022-07-29T13:17:55;6.90;;;1.70;;
29320;SDS011;16323;51.130;6.612;2022-07-29T13:20:23;5.15;;;1.90;;
29320;SDS011;16323;51.130;6.612;2022-07-29T13:22:52;3.40;;;1.67;;
29320;SDS011;16323;51.130;6.612;2022-07-29T13:25:23;5.78;;;2.30;;
29320;SDS011;16323;51.130;6.612;2022-07-29T13:27:52;7.40;;;1.85;;
29320;SDS011;16323;51.130;6.612;2022-07-29T13:30:20;25.25;;;5.13;;
29320;SDS011;16323;51.130;6.612;2022-07-29T13:32:48;16.88;;;3.63;;
29320;SDS011;16323;51.130;6.612;2022-07-29T13:35:15;13.32;;;2.55;;
29320;SDS011;16323;51.130;6.612;2022-07-29T13:37:42;10.05;;;2.20;;
29320;SDS011;16323;51.130;6.612;2022-07-29T13:40:10;4.43;;;1.88;;
29320;SDS011;16323;51.130;6.612;2022-07-29T13:42:38;7.40;;;2.17;;
29320;SDS011;16323;51.130;6.612;2022-07-29T13:45:07;6.75;;;2.00;;
29320;SDS011;16323;51.130;6.612;2022-07-29T13:47:35;5.55;;;1.45;;
29320;SDS011;16323;51.130;6.612;2022-07-29T13:50:03;5.60;;;1.67;;
29320;SDS011;16323;51.130;6.612;2022-07-29T13:52:31;3.75;;;2.10;;
29320;SDS011;16323;51.130;6.612;2022-07-29T13:54:58;5.78;;;1.70;;
29320;SDS011;16323;51.130;6.612;2022-07-29T13:57:25;10.00;;;1.92;;
29320;SDS011;16323;51.130;6.612;2022-07-29T13:59:52;3.33;;;1.52;;
29320;SDS011;16323;51.130;6.612;2022-07-29T14:02:20;4.68;;;1.73;;
29320;SDS011;16323;51.130;6.612;2022-07-29T14:04:47;4.22;;;1.67;;
29320;SDS011;16323;51.130;6.612;2022-07-29T14:07:14;4.57;;;2.10;;
29320;SDS011;16323;51.130;6.612;2022-07-29T14:09:41;4.28;;;1.58;;
29320;SDS011;16323;51.130;6.612;2022-07-29T14:12:07;4.78;;;1.80;;
29320;SDS011;16323;51.130;6.612;2022-07-29T14:14:35;3.55;;;1.70;;
29320;SDS011;16323;51.130;6.612;2022-07-29T14:17:01;4.90;;;1.67;;
29320;SDS011;16323;51.130;6.612;2022-07-29T14:19:32;4.97;;;1.67;;
29320;SDS011;16323;51.130;6.612;2022-07-29T14:22:01;3.90;;;1.13;;
29320;SDS011;16323;51.130;6.612;2022-07-29T14:24:28;3.47;;;1.35;;
29320;SDS011;16323;51.130;6.612;2022-07-29T14:26:55;4.10;;;1.73;;
29320;SDS011;16323;51.130;6.612;2022-07-29T14:29:22;2.35;;;1.35;;
29320;SDS011;16323;51.130;6.612;2022-07-29T14:31:49;1.88;;;1.25;;
29320;SDS011;16323;51.130;6.612;2022-07-29T14:34:15;1.92;;;1.08;;
29320;SDS011;16323;51.130;6.612;2022-07-29T14:36:43;4.63;;;1.60;;
29320;SDS011;16323;51.130;6.612;2022-07-29T14:39:10;2.60;;;1.10;;
29320;SDS011;16323;51.130;6.612;2022-07-29T14:41:37;3.17;;;1.30;;
29320;SDS011;16323;51.130;6.612;2022-07-29T14:44:04;2.15;;;1.08;;
29320;SDS011;16323;51.130;6.612;2022-07-29T14:46:30;3.30;;;1.40;;
29320;SDS011;16323;51.130;6.612;2022-07-29T14:48:57;2.58;;;1.02;;
29320;SDS011;16323;51.130;6.612;2022-07-29T14:51:24;3.03;;;1.30;;
29320;SDS011;16323;51.130;6.612;2022-07-29T14:53:52;2.70;;;1.10;;
29320;SDS011;16323;51.130;6.612;2022-07-29T14:56:19;2.67;;;1.02;;
29320;SDS011;16323;51.130;6.612;2022-07-29T14:58:46;2.72;;;1.30;;
29320;SDS011;16323;51.130;6.612;2022-07-29T15:01:13;2.95;;;1.35;;
29320;SDS011;16323;51.130;6.612;2022-07-29T15:03:40;2.75;;;1.40;;
29320;SDS011;16323;51.130;6.612;2022-07-29T15:06:06;3.10;;;1.20;;
29320;SDS011;16323;51.130;6.612;2022-07-29T15:08:33;3.38;;;1.10;;
29320;SDS011;16323;51.130;6.612;2022-07-29T15:11:01;3.90;;;1.17;;
29320;SDS011;16323;51.130;6.612;2022-07-29T15:13:28;2.38;;;1.02;;
29320;SDS011;16323;51.130;6.612;2022-07-29T15:15:55;3.72;;;1.30;;